Time;durP1;ratioP1;P1;durP2;ratioP2;P2;SDS_P1;SDS_P2;PMS_P1;PMS_P2;Temp;Humidity;BMP_temperature;BMP_pressure;BME280_temperature;BME280_humidity;BME280_pressure;Samples;Min_cycle;Max_cycle;Signal;HPM_P1;HPM_P2
2021/10/25 00:03:43;;;;;;;60.78;30.17;;;;;;;0.71;78.39;100347.08;4122892;84;21109;-82
2021/10/25 00:09:44;;;;;;;66.05;30.50;;;;;;;0.71;78.39;100347.08;4122741;86;21017;-83
2021/10/25 00:15:45;;;;;;;59.38;30.10;;;;;;;0.52;78.30;100336.13;4131302;84;21569;-82
2021/10/25 00:21:48;;;;;;;55.98;26.57;;;;;;;0.59;78.24;100353.34;4127799;84;21097;-82
2021/10/25 00:27:49;;;;;;;54.83;26.50;;;;;;;0.28;78.81;100337.87;4127736;84;21029;-84
2021/10/25 00:33:51;;;;;;;58.23;25.85;;;;;;;0.28;78.81;100337.87;4115501;85;21006;-83
2021/10/25 00:39:52;;;;;;;54.30;24.85;;;;;;;0.38;79.02;100330.26;4102680;86;21688;-82
2021/10/25 00:45:56;;;;;;;60.92;26.85;;;;;;;0.46;79.29;100302.75;4121434;85;21628;-82
2021/10/25 00:51:58;;;;;;;55.85;27.00;;;;;;;0.46;79.29;100302.75;4088089;86;21017;-83
2021/10/25 00:58:00;;;;;;;52.83;24.52;;;;;;;0.48;78.88;100319.45;4081074;86;21032;-83
2021/10/25 01:04:02;;;;;;;55.30;24.52;;;;;;;0.46;79.15;100325.65;4089298;86;21048;-83
2021/10/25 01:10:04;;;;;;;58.83;28.30;;;;;;;0.41;79.01;100318.40;4078711;86;21064;-83
2021/10/25 01:16:08;;;;;;;52.35;25.25;;;;;;;0.25;79.08;100303.94;4093527;86;21049;-83
2021/10/25 01:22:10;;;;;;;57.30;27.90;;;;;;;0.46;80.13;100305.44;4073784;85;21052;-84
2021/10/25 01:28:12;;;;;;;52.45;25.77;;;;;;;0.48;79.10;100296.55;4066838;86;21013;-83
2021/10/25 01:34:15;;;;;;;49.23;24.02;;;;;;;0.35;79.47;100299.84;4084447;85;21056;-83
2021/10/25 01:40:16;;;;;;;59.40;27.50;;;;;;;0.11;79.24;100288.11;4079457;85;21608;-83
2021/10/25 01:46:18;;;;;;;53.55;26.27;;;;;;;0.09;79.53;100286.22;4061494;86;21096;-83
2021/10/25 01:52:20;;;;;;;52.93;27.05;;;;;;;0.03;79.53;100284.89;3998270;88;21025;-82
2021/10/25 01:58:23;;;;;;;53.93;24.13;;;;;;;0.02;79.40;100279.00;4003246;88;21087;-83
2021/10/25 02:04:26;;;;;;;51.97;25.00;;;;;;;-0.16;79.48;100277.70;3994343;88;21055;-82
2021/10/25 02:10:28;;;;;;;47.60;24.67;;;;;;;-0.33;79.25;100263.76;3968294;89;21065;-82
2021/10/25 02:16:30;;;;;;;48.20;24.37;;;;;;;-0.42;79.82;100262.16;3965564;88;21048;-82
2021/10/25 02:22:32;;;;;;;48.25;23.92;;;;;;;-0.34;80.27;100252.18;3971799;88;21044;-82
2021/10/25 02:28:34;;;;;;;53.57;23.10;;;;;;;-0.28;80.02;100248.92;3974743;88;21084;-81
2021/10/25 02:34:36;;;;;;;46.00;22.45;;;;;;;-0.21;80.42;100250.27;3976305;88;21030;-81
2021/10/25 02:40:37;;;;;;;52.75;23.32;;;;;;;-0.20;80.43;100250.52;3972179;88;22339;-82
2021/10/25 02:46:38;;;;;;;46.23;23.60;;;;;;;-0.07;80.80;100251.30;3970003;88;21091;-82
2021/10/25 02:52:40;;;;;;;47.10;22.63;;;;;;;0.16;80.95;100255.22;4001152;87;21085;-81
2021/10/25 02:58:43;;;;;;;59.18;24.87;;;;;;;0.03;80.28;100249.11;3984147;87;21687;-81
2021/10/25 03:04:44;;;;;;;51.03;21.03;;;;;;;-0.26;79.72;100244.08;3992011;87;21069;-82
2021/10/25 03:10:46;;;;;;;49.83;24.33;;;;;;;-0.44;79.97;100245.47;4000577;88;21101;-81
2021/10/25 03:16:48;;;;;;;54.97;23.27;;;;;;;-0.48;80.12;100242.25;4112586;85;21047;-81
2021/10/25 03:22:49;;;;;;;50.87;23.97;;;;;;;-0.56;80.34;100242.80;4133731;85;21111;-81
2021/10/25 03:28:53;;;;;;;57.20;25.60;;;;;;;-0.62;80.60;100237.98;4130790;84;21087;-81
2021/10/25 03:34:55;;;;;;;51.57;23.53;;;;;;;-0.59;80.46;100232.06;4142019;85;21016;-81
2021/10/25 03:40:57;;;;;;;58.47;25.53;;;;;;;-0.64;80.54;100231.28;4131185;84;21671;-81
2021/10/25 03:47:06;;;;;;;53.60;23.53;;;;;;;-0.70;80.43;100226.97;4116809;85;21063;-80
2021/10/25 03:53:21;;;;;;;50.70;24.60;;;;;;;-0.77;80.51;100223.23;4115045;86;21588;-81
2021/10/25 04:31:00;;;;;;;40.70;18.30;;;;;;;-1.30;81.11;100174.62;4127781;84;21020;-81
2021/10/25 04:37:04;;;;;;;46.30;19.07;;;;;;;-1.00;82.04;100163.86;4119400;84;21091;-81
2021/10/25 04:43:17;;;;;;;37.75;17.98;;;;;;;-0.66;82.08;100162.95;4101862;86;21538;-82
2021/10/25 04:49:17;;;;;;;39.00;18.67;;;;;;;-0.74;81.09;100157.34;4110633;86;21638;-83
2021/10/25 04:55:20;;;;;;;34.20;16.87;;;;;;;-0.88;81.36;100159.80;4115597;84;21047;-81
2021/10/25 05:01:23;;;;;;;42.63;20.20;;;;;;;-0.74;81.68;100152.78;4112771;86;21044;-82
2021/10/25 05:07:25;;;;;;;41.07;19.10;;;;;;;-0.73;80.97;100146.31;4133391;84;21036;-82
2021/10/25 05:13:27;;;;;;;39.30;19.17;;;;;;;-0.84;81.45;100149.29;4132400;84;21008;-82
2021/10/25 05:19:29;;;;;;;39.37;18.53;;;;;;;-0.98;81.18;100146.90;4134109;86;21121;-81
2021/10/25 05:25:34;;;;;;;45.10;22.37;;;;;;;-1.15;81.08;100139.67;4100966;84;21067;-81
2021/10/25 05:31:36;;;;;;;50.67;24.07;;;;;;;-1.03;82.08;100139.66;4115980;84;21052;-81
2021/10/25 05:37:40;;;;;;;50.50;24.20;;;;;;;-0.72;82.10;100147.12;4108938;84;21387;-81
2021/10/25 05:43:42;;;;;;;58.73;26.67;;;;;;;-0.49;81.97;100141.94;4114844;86;21036;-82
2021/10/25 05:49:45;;;;;;;67.60;28.90;;;;;;;-0.42;81.68;100153.73;4103666;85;20950;-83
2021/10/25 05:55:47;;;;;;;63.00;28.50;;;;;;;-0.40;81.28;100143.50;4093520;85;21036;-82
2021/10/25 06:01:57;;;;;;;64.33;32.70;;;;;;;-0.55;81.17;100132.81;4087894;86;21075;-82
2021/10/25 06:07:59;;;;;;;71.33;32.57;;;;;;;-0.59;81.40;100151.91;4081164;85;21052;-83
2021/10/25 06:14:03;;;;;;;63.70;27.77;;;;;;;-0.68;81.46;100147.65;4065205;85;21016;-83
2021/10/25 06:20:11;;;;;;;60.73;28.63;;;;;;;-0.67;81.79;100150.59;4089472;83;26488;-83
2021/10/25 06:26:11;;;;;;;71.27;29.80;;;;;;;-0.60;81.91;100153.00;4218412;84;21001;-82
2021/10/25 06:32:14;;;;;;;57.60;26.63;;;;;;;-0.56;82.34;100146.80;4235754;84;21034;-82
2021/10/25 06:38:16;;;;;;;63.97;31.97;;;;;;;-0.51;82.40;100149.47;4240521;82;21081;-83
2021/10/25 06:44:18;;;;;;;59.27;27.20;;;;;;;-0.48;82.74;100146.23;4237842;82;21108;-83
2021/10/25 06:50:26;;;;;;;62.00;28.57;;;;;;;-0.18;83.29;100157.40;4270478;81;21023;-83
2021/10/25 06:56:27;;;;;;;62.30;31.07;;;;;;;-0.09;83.07;100157.89;4246036;82;21031;-83
2021/10/25 07:02:28;;;;;;;86.10;38.50;;;;;;;0.21;83.31;100160.95;4322787;81;21056;-84
2021/10/25 07:08:33;;;;;;;53.33;27.87;;;;;;;0.72;84.25;100149.27;4315943;81;21006;-84
2021/10/25 07:14:38;;;;;;;65.90;31.12;;;;;;;1.31;83.72;100150.58;4246106;82;21024;-84
2021/10/25 08:11:08;;;;;;;46.68;24.05;;;;;;;5.63;81.93;100110.86;4237858;82;20999;-82
2021/10/25 08:17:17;;;;;;;42.87;22.40;;;;;;;6.69;81.66;100102.42;4190592;83;21094;-84
2021/10/25 08:23:14;;;;;;;44.30;22.07;;;;;;;7.39;80.17;100099.19;4186441;83;20994;-84
2021/10/25 08:29:18;;;;;;;37.98;21.30;;;;;;;7.99;79.76;100092.27;4211093;82;21058;-82
2021/10/25 08:42:00;;;;;;;36.60;20.30;;;;;;;9.39;77.62;100086.21;4233805;82;21061;-84
2021/10/25 08:48:05;;;;;;;48.05;22.27;;;;;;;10.12;77.35;100078.76;4193875;83;21073;-83
2021/10/25 08:54:06;;;;;;;38.90;21.73;;;;;;;10.95;76.84;100076.84;4259731;83;21020;-83
2021/10/25 09:00:13;;;;;;;42.25;22.48;;;;;;;11.67;75.84;100073.61;4212625;83;21034;-82
2021/10/25 09:06:16;;;;;;;45.75;24.52;;;;;;;12.49;75.68;100065.45;4323934;82;21048;-84
2021/10/25 09:12:20;;;;;;;44.18;21.85;;;;;;;12.86;73.99;100063.61;4299788;82;21088;-84
2021/10/25 09:18:31;;;;;;;36.13;22.02;;;;;;;13.18;73.85;100063.06;4321362;82;21009;-84
2021/10/25 09:24:37;;;;;;;32.85;20.97;;;;;;;13.99;72.19;100054.70;4186486;84;21017;-82
2021/10/25 09:30:48;;;;;;;;;;;;;;;14.35;70.85;100045.78;4211156;83;21109;-83
2021/10/25 09:36:53;;;;;;;32.03;17.93;;;;;;;14.91;68.16;100034.63;4218090;84;20121;-85
2021/10/25 09:49:09;;;;;;;34.73;19.57;;;;;;;15.91;66.82;100029.55;4253288;82;21067;-83
2021/10/25 09:55:20;;;;;;;33.50;17.85;;;;;;;16.11;65.88;100023.94;4252765;82;21013;-84
2021/10/25 10:01:28;;;;;;;26.93;15.03;;;;;;;16.32;65.11;100017.14;4183578;83;21063;-83
2021/10/25 10:07:29;;;;;;;25.47;13.47;;;;;;;16.60;64.12;100013.90;4328922;81;20997;-84
2021/10/25 10:13:34;;;;;;;21.00;14.03;;;;;;;17.51;62.78;100011.09;4320849;81;21494;-84
2021/10/25 10:19:38;;;;;;;24.95;13.80;;;;;;;17.92;61.39;100002.50;4312840;81;21081;-85
2021/10/25 10:26:00;;;;;;;24.63;12.93;;;;;;;17.82;60.58;99993.63;4319239;81;21661;-84
2021/10/25 10:32:07;;;;;;;23.22;12.63;;;;;;;17.43;59.11;99995.02;4321245;81;22287;-84
2021/10/25 10:38:10;;;;;;;21.82;12.40;;;;;;;16.91;57.86;99986.13;4314880;81;21045;-84
2021/10/25 10:44:23;;;;;;;24.67;13.20;;;;;;;16.41;57.55;99982.41;4241342;82;21021;-85
2021/10/25 10:50:45;;;;;;;23.07;12.03;;;;;;;16.04;56.80;99978.31;4228400;81;21073;-82
2021/10/25 10:57:05;;;;;;;25.20;11.78;;;;;;;15.88;55.70;99959.30;4197425;83;21048;-83
2021/10/25 11:03:17;;;;;;;24.27;11.38;;;;;;;15.87;55.66;99952.79;4162179;84;21053;-84
2021/10/25 11:09:19;;;;;;;19.98;11.57;;;;;;;16.00;53.81;99943.00;4229578;82;21663;-85
2021/10/25 11:15:20;;;;;;;20.17;10.85;;;;;;;15.85;54.44;99924.19;4239543;82;21070;-82
2021/10/25 11:21:34;;;;;;;19.98;10.72;;;;;;;15.85;53.45;99922.81;4188161;83;21084;-82
2021/10/25 11:27:36;;;;;;;21.82;11.30;;;;;;;15.64;52.92;99926.86;4162023;83;21075;-82
2021/10/25 11:33:43;;;;;;;16.35;10.18;;;;;;;15.25;52.20;99922.42;4147449;84;22196;-82
2021/10/25 11:39:49;;;;;;;;;;;;;;;14.89;51.82;99920.57;4151990;84;21532;-83
2021/10/25 11:45:49;;;;;;;21.68;9.75;;;;;;;14.78;52.07;99918.34;4082399;83;34285;-83
2021/10/25 11:51:56;;;;;;;86.28;13.55;;;;;;;14.54;51.23;99903.73;3927772;89;22037;-82
2021/10/25 11:58:09;;;;;;;28.40;8.73;;;;;;;14.44;51.25;99898.90;4042829;87;21626;-84
2021/10/25 12:04:10;;;;;;;24.95;10.82;;;;;;;14.36;50.98;99900.00;4040578;87;21045;-85
2021/10/25 12:10:11;;;;;;;19.42;9.15;;;;;;;14.31;50.24;99885.21;4041412;87;21046;-82
2021/10/25 12:16:14;;;;;;;18.40;9.98;;;;;;;14.24;50.53;99886.50;4043170;87;21267;-82
2021/10/25 12:22:23;;;;;;;18.27;10.03;;;;;;;14.26;50.21;99881.99;4041124;87;21114;-83
2021/10/25 12:28:23;;;;;;;18.37;10.10;;;;;;;14.16;50.07;99877.92;4039790;87;21131;-83
2021/10/25 12:34:26;;;;;;;21.57;9.23;;;;;;;14.07;49.90;99874.11;4039866;87;21011;-83
2021/10/25 12:40:29;;;;;;;20.52;10.53;;;;;;;13.99;49.82;99866.14;4041066;87;21091;-82
2021/10/25 12:46:36;;;;;;;18.42;10.00;;;;;;;14.06;49.99;99855.22;4041256;87;21950;-81
2021/10/25 12:52:43;;;;;;;19.10;9.13;;;;;;;14.06;49.59;99843.59;4041170;87;21050;-82
2021/10/25 12:58:45;;;;;;;16.77;9.68;;;;;;;14.09;49.78;99837.34;4040690;87;21737;-82
2021/10/25 13:04:46;;;;;;;23.02;11.28;;;;;;;14.07;49.23;99838.89;4042627;87;21079;-82
2021/10/25 13:10:47;;;;;;;20.90;8.98;;;;;;;14.05;49.68;99828.27;4044624;87;21051;-82
2021/10/25 13:16:51;;;;;;;19.17;9.00;;;;;;;14.10;49.92;99825.75;4040774;87;22447;-82
2021/10/25 13:22:57;;;;;;;17.90;8.70;;;;;;;14.10;49.78;99820.24;4041091;87;21904;-82
2021/10/25 13:28:58;;;;;;;16.17;8.20;;;;;;;14.08;49.81;99812.94;4040738;87;21055;-83
2021/10/25 13:35:00;;;;;;;16.95;7.90;;;;;;;14.03;49.65;99812.70;4041557;87;21055;-83
2021/10/25 13:41:02;;;;;;;15.58;7.62;;;;;;;13.97;49.95;99807.91;4043484;87;21075;-82
2021/10/25 13:47:03;;;;;;;20.65;7.87;;;;;;;13.92;49.88;99798.64;4040763;87;21129;-82
2021/10/25 13:53:05;;;;;;;16.25;7.53;;;;;;;13.84;49.89;99785.36;4039491;87;21044;-83
2021/10/25 13:59:07;;;;;;;11.12;6.62;;;;;;;13.75;49.98;99775.86;4040392;87;21063;-82
2021/10/25 14:05:17;;;;;;;10.08;5.65;;;;;;;13.68;50.00;99766.13;4039881;87;21059;-82
2021/10/25 14:11:18;;;;;;;15.00;6.65;;;;;;;13.57;50.16;99760.52;4041306;87;21066;-83
2021/10/25 14:17:21;;;;;;;14.63;6.10;;;;;;;13.49;50.27;99762.98;4040534;87;21035;-83
2021/10/25 14:23:22;;;;;;;11.10;5.20;;;;;;;13.41;50.42;99756.38;4040984;87;21047;-84
2021/10/25 14:29:24;;;;;;;11.50;5.35;;;;;;;13.28;50.87;99742.70;4041823;87;22219;-83
2021/10/25 14:35:27;;;;;;;13.53;5.03;;;;;;;13.14;51.00;99733.67;4040415;87;21495;-83
2021/10/25 14:41:48;;;;;;;11.78;5.35;;;;;;;13.00;50.88;99719.75;4041625;87;21083;-83
2021/10/25 14:53:46;;;;;;;8.90;4.70;;;;;;;12.71;51.49;99714.22;4039705;87;21012;-82
2021/10/25 14:59:46;;;;;;;7.80;4.70;;;;;;;12.53;51.81;99707.91;4041155;87;21032;-85
2021/10/25 15:05:53;;;;;;;15.88;5.12;;;;;;;12.31;52.05;99698.33;4045661;87;21146;-84
2021/10/25 15:11:55;;;;;;;12.75;4.40;;;;;;;12.08;52.37;99701.70;4046078;87;21049;-83
2021/10/25 15:24:24;;;;;;;11.45;4.60;;;;;;;11.64;53.00;99708.77;4021533;87;21047;-83
2021/10/25 15:30:25;;;;;;;31.97;9.63;;;;;;;11.38;53.57;99687.52;4044909;87;21054;-83
2021/10/25 15:36:27;;;;;;;22.65;6.65;;;;;;;11.02;53.83;99681.14;4042543;87;21051;-82
2021/10/25 15:42:28;;;;;;;20.43;7.80;;;;;;;10.59;54.52;99674.55;4040886;87;21114;-82
2021/10/25 15:48:32;;;;;;;37.28;17.30;;;;;;;10.21;55.08;99681.33;4044286;87;21541;-83
2021/10/25 15:54:34;;;;;;;27.60;13.32;;;;;;;9.90;55.67;99681.33;4042932;87;21067;-82
2021/10/25 16:00:35;;;;;;;23.40;10.90;;;;;;;9.51;56.13;99677.03;4041503;87;21613;-82
2021/10/25 16:06:37;;;;;;;24.47;12.90;;;;;;;9.11;56.24;99674.18;4041211;87;21614;-83
2021/10/25 16:12:39;;;;;;;30.08;13.32;;;;;;;8.64;57.24;99674.58;4040475;87;21027;-82
2021/10/25 16:18:42;;;;;;;24.87;12.13;;;;;;;8.36;57.85;99681.36;4040630;87;21038;-82
2021/10/25 16:24:44;;;;;;;22.77;10.55;;;;;;;8.13;58.58;99671.24;4041794;87;21082;-83
2021/10/25 16:30:45;;;;;;;19.20;10.80;;;;;;;7.84;59.16;99669.53;4039182;87;21039;-82
2021/10/25 16:36:48;;;;;;;61.68;28.95;;;;;;;7.61;60.21;99673.25;4040143;87;21604;-82
2021/10/25 16:42:49;;;;;;;66.92;35.08;;;;;;;7.29;62.58;99677.39;4040358;87;21660;-82
2021/10/25 16:48:51;;;;;;;57.45;26.95;;;;;;;7.02;62.74;99677.98;4043669;87;21102;-82
2021/10/25 17:13:46;;;;;;;84.95;41.15;;;;;;;6.54;63.96;99692.72;4022587;87;21074;-81
2021/10/25 17:19:47;;;;;;;54.58;27.62;;;;;;;6.46;64.47;99694.38;4018334;87;21125;-82
2021/10/25 17:25:49;;;;;;;43.60;25.00;;;;;;;6.27;64.81;99694.02;4024169;87;21045;-81
2021/10/25 17:32:10;;;;;;;40.83;21.70;;;;;;;5.95;64.97;99694.11;4025217;87;21032;-81
2021/10/25 17:38:23;;;;;;;71.25;34.78;;;;;;;5.91;65.97;99692.38;4023298;87;21032;-81
2021/10/25 17:50:59;;;;;;;78.52;37.40;;;;;;;5.61;66.21;99685.28;4021824;87;21067;-81
2021/10/25 17:57:08;;;;;;;62.73;32.05;;;;;;;5.47;66.93;99686.05;4034243;87;21536;-81
2021/10/25 18:03:07;;;;;;;72.55;34.95;;;;;;;5.36;67.02;99689.69;4033050;87;21026;-82
2021/10/25 18:09:09;;;;;;;81.08;40.52;;;;;;;5.05;67.46;99689.66;4034296;87;21030;-82
2021/10/25 18:15:11;;;;;;;67.22;30.25;;;;;;;4.83;68.03;99676.55;4033974;87;21051;-82
2021/10/25 18:21:12;;;;;;;52.67;28.70;;;;;;;4.82;68.37;99680.35;4034308;87;21095;-81
2021/10/25 18:27:14;;;;;;;73.72;35.75;;;;;;;4.66;69.00;99687.40;4031525;87;21679;-82
2021/10/25 18:33:15;;;;;;;97.12;43.92;;;;;;;4.56;68.99;99695.84;4036118;87;21020;-82
2021/10/25 18:39:16;;;;;;;111.97;51.08;;;;;;;4.39;69.25;99699.89;4033333;87;21055;-82
2021/10/25 18:45:20;;;;;;;106.90;52.23;;;;;;;4.36;69.92;99705.95;4034373;87;21085;-81
2021/10/25 18:51:25;;;;;;;117.72;55.10;;;;;;;4.26;69.79;99708.17;4036486;87;21170;-81
2021/10/25 18:57:27;;;;;;;101.42;45.78;;;;;;;3.99;70.30;99697.58;4043308;87;22263;-82
2021/10/25 19:03:28;;;;;;;103.30;46.42;;;;;;;4.02;71.06;99690.98;4042312;87;21118;-82
2021/10/25 19:09:30;;;;;;;125.82;59.63;;;;;;;3.89;70.91;99689.73;4039724;87;21071;-82
2021/10/25 19:15:32;;;;;;;171.77;79.70;;;;;;;3.85;70.83;99696.36;4043611;87;21598;-81
2021/10/25 19:21:39;;;;;;;164.45;72.72;;;;;;;3.59;71.18;99690.02;4042633;87;21686;-81
2021/10/25 19:27:54;;;;;;;121.25;57.05;;;;;;;3.44;71.25;99685.03;4041503;87;21098;-81
2021/10/25 19:33:51;;;;;;;115.70;51.60;;;;;;;3.28;71.11;99689.23;4039284;87;21998;-82
2021/10/25 19:39:53;;;;;;;119.33;57.93;;;;;;;3.09;72.46;99702.97;4040702;87;21562;-82
2021/10/25 19:45:55;;;;;;;124.35;58.73;;;;;;;3.14;72.55;99698.80;4042341;87;21337;-82
2021/10/25 19:51:56;;;;;;;118.55;54.23;;;;;;;2.99;72.03;99712.68;4041777;87;21020;-82
2021/10/25 19:57:58;;;;;;;126.45;60.73;;;;;;;2.77;72.78;99708.61;4041309;87;21023;-82
2021/10/25 20:04:00;;;;;;;137.92;65.92;;;;;;;2.65;72.64;99713.77;4042167;86;21651;-82
2021/10/25 20:10:03;;;;;;;132.70;60.28;;;;;;;2.47;73.09;99702.58;4041880;87;21099;-82
2021/10/25 20:16:06;;;;;;;143.05;69.07;;;;;;;2.49;72.98;99696.87;4042066;87;21047;-81
2021/10/25 20:22:07;;;;;;;116.65;56.70;;;;;;;2.38;73.44;99696.28;4041258;87;21123;-82
2021/10/25 20:28:08;;;;;;;137.37;63.80;;;;;;;2.22;73.93;99697.73;4042356;87;21566;-82
2021/10/25 20:34:10;;;;;;;102.58;47.55;;;;;;;2.18;74.17;99699.42;3909859;89;21078;-82
2021/10/25 20:40:15;;;;;;;118.80;56.15;;;;;;;2.20;75.02;99691.83;3925110;89;21606;-82
2021/10/25 20:46:15;;;;;;;134.32;61.98;;;;;;;2.13;74.75;99692.78;4041765;87;21037;-81
2021/10/25 20:52:17;;;;;;;137.18;63.33;;;;;;;2.06;74.18;99702.39;4041629;87;21610;-81
2021/10/25 20:58:18;;;;;;;143.55;65.35;;;;;;;2.04;74.96;99706.75;4042838;87;22051;-81
2021/10/25 21:04:20;;;;;;;120.25;58.87;;;;;;;1.96;74.87;99705.33;4046968;87;21110;-82
2021/10/25 21:10:21;;;;;;;123.75;62.43;;;;;;;1.79;74.64;99696.47;4041174;87;21660;-81
2021/10/25 21:16:25;;;;;;;100.27;53.83;;;;;;;1.69;74.76;99698.03;4041373;87;21031;-82
2021/10/25 21:22:26;;;;;;;135.80;62.62;;;;;;;1.51;74.84;99691.62;4041475;87;21072;-82
2021/10/25 21:28:28;;;;;;;102.00;53.42;;;;;;;1.39;75.60;99691.28;4042117;87;21047;-81
2021/10/25 21:34:29;;;;;;;111.15;54.10;;;;;;;1.42;75.82;99696.66;4045090;87;21110;-82
2021/10/25 21:40:31;;;;;;;136.10;65.60;;;;;;;1.51;76.02;99694.86;4041951;87;21024;-83
2021/10/25 21:46:32;;;;;;;139.12;70.28;;;;;;;1.55;76.40;99691.83;4041420;87;20995;-84
2021/10/25 21:52:33;;;;;;;134.47;65.40;;;;;;;1.53;76.40;99685.92;4045459;87;21067;-82
2021/10/25 21:58:35;;;;;;;105.75;51.45;;;;;;;1.42;76.45;99683.97;4041646;87;21634;-82
2021/10/25 22:04:36;;;;;;;137.82;66.12;;;;;;;1.40;77.11;99691.55;4044478;87;21118;-82
2021/10/25 22:10:38;;;;;;;106.92;51.73;;;;;;;1.40;76.42;99685.34;4041634;87;21035;-82
2021/10/25 22:16:39;;;;;;;152.80;74.15;;;;;;;1.47;77.64;99693.87;4041556;87;21057;-82
2021/10/25 22:22:41;;;;;;;108.95;57.40;;;;;;;1.47;76.87;99677.67;4041652;87;21036;-82
2021/10/25 22:28:43;;;;;;;153.53;76.20;;;;;;;1.43;77.60;99663.98;4042717;87;21073;-82
2021/10/25 22:34:45;;;;;;;151.95;76.22;;;;;;;1.44;77.17;99657.47;4042057;87;21117;-84
2021/10/25 22:40:46;;;;;;;154.93;74.37;;;;;;;1.06;76.32;99657.93;4042389;87;21053;-82
2021/10/25 22:46:48;;;;;;;123.02;61.63;;;;;;;0.83;76.95;99657.53;4040775;87;21071;-82
2021/10/25 22:52:51;;;;;;;138.62;65.95;;;;;;;0.95;77.60;99653.81;4042116;87;21089;-82
2021/10/25 22:58:54;;;;;;;133.90;64.27;;;;;;;0.95;77.60;99653.81;4041089;87;21055;-82
2021/10/25 23:04:55;;;;;;;147.22;72.95;;;;;;;0.92;78.56;99655.21;4046217;87;21146;-81
2021/10/25 23:10:57;;;;;;;155.65;71.35;;;;;;;0.91;77.50;99664.95;4042847;87;21551;-82
2021/10/25 23:16:59;;;;;;;141.80;68.62;;;;;;;0.86;78.06;99691.41;4041404;87;21107;-82
2021/10/25 23:23:01;;;;;;;132.32;65.28;;;;;;;0.47;77.99;99628.99;4042203;87;21121;-81
2021/10/25 23:29:03;;;;;;;129.00;62.58;;;;;;;0.48;77.93;99671.55;4040971;87;21022;-82
2021/10/25 23:35:05;;;;;;;141.80;66.87;;;;;;;0.29;78.60;99668.88;4042617;87;21047;-81
2021/10/25 23:41:07;;;;;;;132.27;67.67;;;;;;;0.51;79.01;99666.92;4045373;87;21050;-83
2021/10/25 23:47:10;;;;;;;125.40;59.40;;;;;;;0.48;78.41;99664.28;4042259;87;21630;-81
2021/10/25 23:53:11;;;;;;;118.93;59.50;;;;;;;0.40;79.47;99676.25;4042934;87;21594;-82
2021/10/25 23:59:13;;;;;;;123.13;61.75;;;;;;;0.46;79.14;99669.69;4036794;86;21077;-81
